Check out our new BloomSky Weather System.

Active alerts

Houston, TX
  Details for Houston, TX Dense Fog Advisory


Thunder radar  blitzortung!


Rain radar more information rain snow radar


Visit our other weather sites:

Template documentation
and downloads

And another site



Weather Underground History page Text

Daily Summary for January 13, 2017 Units:  English    Metric   Both
« Previous Day
Next Day »
Daily Weekly Monthly Yearly Custom
  High: Low: Average:
Temperature: 78.1 °F 68.0 °F 71.3 °F
Dew Point: 70.0 °F 66.6 °F 68.2 °F
Humidity: 98 % 69 % 91 %
Wind Speed: 13.0 mph 0.0 mph 3.3 mph
Wind Gust: 15.0 mph - -
Wind:- - SE
Pressure: 30.34 in 30.19 in -
Precipitation: 0.11 in    
Historical Graphs
 
 
Tabular Data for January 13, 2017
Time Temperature Dew Point Pressure Wind Wind Speed Wind Gust Humidity Rainfall Rate (Hourly)
00:02 69.6 °F 68.4 °F 30.19 in SSE 4.0 mph 8.0 mph 96 % 0.00 in
00:07 69.6 °F 68.4 °F 30.19 in SE 7.0 mph 8.0 mph 96 % 0.00 in
00:12 69.6 °F 68.4 °F 30.19 in SSE 4.0 mph 8.0 mph 96 % 0.00 in
00:17 69.6 °F 68.4 °F 30.19 in SE 2.0 mph 7.0 mph 96 % 0.00 in
00:22 69.6 °F 68.4 °F 30.19 in SE 3.0 mph 7.0 mph 96 % 0.00 in
00:27 69.6 °F 68.4 °F 30.19 in SE 3.0 mph 7.0 mph 96 % 0.00 in
00:32 69.6 °F 68.7 °F 30.19 in ESE 5.0 mph 10.0 mph 97 % 0.00 in
00:37 69.6 °F 68.7 °F 30.19 in South 3.0 mph 10.0 mph 97 % 0.00 in
00:42 69.6 °F 68.7 °F 30.19 in SE 8.0 mph 10.0 mph 97 % 0.00 in
00:47 69.6 °F 68.7 °F 30.19 in SE 5.0 mph 9.0 mph 97 % 0.00 in
00:52 69.6 °F 68.7 °F 30.19 in SE 4.0 mph 9.0 mph 97 % 0.00 in
00:57 69.6 °F 68.7 °F 30.19 in ESE 1.0 mph 9.0 mph 97 % 0.00 in
01:02 69.6 °F 68.7 °F 30.19 in South 2.0 mph 8.0 mph 97 % 0.00 in
01:07 69.8 °F 68.9 °F 30.19 in ESE 5.0 mph 8.0 mph 97 % 0.00 in
01:12 69.8 °F 68.9 °F 30.19 in SE 4.0 mph 8.0 mph 97 % 0.00 in
01:17 69.8 °F 68.9 °F 30.19 in South 2.0 mph 9.0 mph 97 % 0.00 in
01:22 70.0 °F 69.1 °F 30.19 in ESE 5.0 mph 9.0 mph 97 % 0.00 in
01:27 70.0 °F 69.1 °F 30.20 in South 3.0 mph 9.0 mph 97 % 0.00 in
01:32 70.0 °F 69.1 °F 30.20 in SE 3.0 mph 8.0 mph 97 % 0.00 in
01:37 70.0 °F 69.1 °F 30.20 in SE 4.0 mph 8.0 mph 97 % 0.00 in
01:42 70.2 °F 69.3 °F 30.20 in East 3.0 mph 12.0 mph 97 % 0.00 in
01:48 70.2 °F 69.3 °F 30.20 in SE 4.0 mph 12.0 mph 97 % 0.00 in
01:53 70.2 °F 69.3 °F 30.20 in SE 4.0 mph 12.0 mph 97 % 0.00 in
01:58 70.2 °F 68.9 °F 30.20 in ESE 5.0 mph 9.0 mph 96 % 0.00 in
02:03 70.3 °F 69.1 °F 30.20 in SE 5.0 mph 9.0 mph 96 % 0.00 in
02:08 70.3 °F 69.1 °F 30.20 in SE 2.0 mph 11.0 mph 96 % 0.00 in
02:13 70.3 °F 69.1 °F 30.20 in SE 5.0 mph 11.0 mph 96 % 0.00 in
02:18 70.3 °F 69.1 °F 30.20 in ESE 3.0 mph 11.0 mph 96 % 0.00 in
02:23 70.3 °F 69.1 °F 30.21 in SSE 2.0 mph 8.0 mph 96 % 0.00 in
02:28 70.3 °F 69.1 °F 30.20 in SE 2.0 mph 8.0 mph 96 % 0.00 in
02:33 70.3 °F 69.1 °F 30.20 in East 2.0 mph 7.0 mph 96 % 0.00 in
02:38 70.2 °F 68.9 °F 30.21 in ESE 2.0 mph 7.0 mph 96 % 0.00 in
02:43 70.2 °F 68.9 °F 30.21 in ESE 1.0 mph 6.0 mph 96 % 0.01 in
02:48 70.2 °F 68.9 °F 30.20 in SE 1.0 mph 6.0 mph 96 % 0.01 in
02:53 70.0 °F 69.1 °F 30.21 in ENE 2.0 mph 6.0 mph 97 % 0.01 in
02:58 70.0 °F 69.1 °F 30.21 in East 1.0 mph 4.0 mph 97 % 0.01 in
03:03 70.0 °F 69.1 °F 30.21 in Calm   4.0 mph 97 % 0.01 in
03:08 70.0 °F 69.1 °F 30.21 in ESE 2.0 mph 3.0 mph 97 % 0.01 in
03:13 70.0 °F 69.1 °F 30.21 in ESE 2.0 mph 3.0 mph 97 % 0.01 in
03:18 70.0 °F 69.1 °F 30.21 in Calm   3.0 mph 97 % 0.01 in
03:23 70.0 °F 69.1 °F 30.21 in Calm   3.0 mph 97 % 0.01 in
03:28 70.0 °F 69.1 °F 30.21 in ESE 1.0 mph 3.0 mph 97 % 0.01 in
03:33 70.0 °F 69.1 °F 30.21 in ESE 2.0 mph 3.0 mph 97 % 0.01 in
03:38 70.0 °F 69.1 °F 30.21 in Calm   3.0 mph 97 % 0.01 in
03:43 69.8 °F 68.9 °F 30.21 in Calm   3.0 mph 97 % 0.00 in
03:48 69.8 °F 68.9 °F 30.21 in SE 1.0 mph 2.0 mph 97 % 0.00 in
03:53 69.8 °F 68.9 °F 30.21 in Calm   1.0 mph 97 % 0.00 in
03:58 69.6 °F 68.7 °F 30.21 in SE 1.0 mph 1.0 mph 97 % 0.00 in
04:03 69.6 °F 68.7 °F 30.21 in Calm   1.0 mph 97 % 0.00 in
04:08 69.6 °F 68.7 °F 30.21 in Calm   1.0 mph 97 % 0.00 in
04:13 69.6 °F 68.7 °F 30.21 in Calm   1.0 mph 97 % 0.00 in
04:18 69.6 °F 68.7 °F 30.21 in Calm   1.0 mph 97 % 0.00 in
04:23 69.6 °F 68.7 °F 30.21 in Calm   1.0 mph 97 % 0.00 in
04:28 69.8 °F 68.9 °F 30.21 in East 1.0 mph 2.0 mph 97 % 0.00 in
04:33 69.8 °F 68.9 °F 30.22 in ESE 1.0 mph 2.0 mph 97 % 0.00 in
04:38 69.6 °F 68.7 °F 30.22 in ENE 1.0 mph 2.0 mph 97 % 0.00 in
04:43 69.6 °F 68.7 °F 30.21 in Calm   2.0 mph 97 % 0.00 in
04:48 69.6 °F 68.7 °F 30.21 in Calm   3.0 mph 97 % 0.00 in
04:53 69.6 °F 68.7 °F 30.21 in Calm   3.0 mph 97 % 0.00 in
04:58 69.6 °F 68.7 °F 30.22 in Calm   3.0 mph 97 % 0.00 in
05:03 69.4 °F 68.5 °F 30.21 in ESE 1.0 mph 3.0 mph 97 % 0.00 in
05:08 69.4 °F 68.5 °F 30.22 in Calm   2.0 mph 97 % 0.00 in
05:13 69.4 °F 68.9 °F 30.22 in Calm   2.0 mph 98 % 0.00 in
05:18 69.3 °F 68.7 °F 30.22 in Calm   2.0 mph 98 % 0.00 in
05:23 69.3 °F 68.7 °F 30.22 in East 1.0 mph 1.0 mph 98 % 0.00 in
05:28 69.3 °F 68.7 °F 30.22 in Calm   3.0 mph 98 % 0.00 in
05:33 69.3 °F 68.7 °F 30.22 in SE 1.0 mph 3.0 mph 98 % 0.07 in
05:38 69.3 °F 68.7 °F 30.22 in SE 2.0 mph 3.0 mph 98 % 0.08 in
05:43 69.4 °F 68.9 °F 30.23 in SE 1.0 mph 4.0 mph 98 % 0.08 in
05:48 69.3 °F 68.7 °F 30.23 in SE 1.0 mph 4.0 mph 98 % 0.08 in
05:53 69.4 °F 68.9 °F 30.23 in East 2.0 mph 4.0 mph 98 % 0.08 in
05:59 69.3 °F 68.7 °F 30.23 in East 2.0 mph 4.0 mph 98 % 0.08 in
06:04 69.4 °F 68.9 °F 30.23 in ESE 2.0 mph 4.0 mph 98 % 0.08 in
06:09 69.3 °F 68.7 °F 30.24 in ESE 1.0 mph 4.0 mph 98 % 0.08 in
06:14 69.3 °F 68.7 °F 30.24 in Calm   4.0 mph 98 % 0.08 in
06:19 69.3 °F 68.7 °F 30.24 in SSE 2.0 mph 4.0 mph 98 % 0.08 in
06:24 69.3 °F 68.7 °F 30.24 in SE 1.0 mph 3.0 mph 98 % 0.08 in
06:29 69.3 °F 68.7 °F 30.24 in ESE 2.0 mph 3.0 mph 98 % 0.08 in
06:34 69.3 °F 68.7 °F 30.24 in ESE 2.0 mph 3.0 mph 98 % 0.01 in
06:39 69.3 °F 68.7 °F 30.25 in SE 1.0 mph 3.0 mph 98 % 0.00 in
06:44 69.1 °F 68.5 °F 30.25 in Calm   3.0 mph 98 % 0.00 in
06:49 69.1 °F 68.5 °F 30.25 in Calm   2.0 mph 98 % 0.00 in
06:54 69.1 °F 68.5 °F 30.25 in ESE 1.0 mph 2.0 mph 98 % 0.00 in
06:59 68.9 °F 68.4 °F 30.25 in Calm   2.0 mph 98 % 0.00 in
07:04 68.9 °F 68.4 °F 30.25 in East 1.0 mph 2.0 mph 98 % 0.00 in
07:09 68.7 °F 68.2 °F 30.25 in Calm   2.0 mph 98 % 0.00 in
07:14 68.7 °F 68.2 °F 30.25 in ESE 1.0 mph 3.0 mph 98 % 0.00 in
07:19 68.7 °F 68.2 °F 30.25 in Calm   3.0 mph 98 % 0.00 in
07:24 68.5 °F 68.0 °F 30.26 in Calm   3.0 mph 98 % 0.00 in
07:29 68.7 °F 68.2 °F 30.26 in Calm   2.0 mph 98 % 0.00 in
07:34 68.5 °F 68.0 °F 30.26 in Calm   2.0 mph 98 % 0.00 in
07:39 68.5 °F 68.0 °F 30.26 in Calm   3.0 mph 98 % 0.00 in
07:44 68.4 °F 67.8 °F 30.27 in East 1.0 mph 3.0 mph 98 % 0.00 in
07:49 68.4 °F 67.8 °F 30.27 in ESE 1.0 mph 3.0 mph 98 % 0.00 in
07:54 68.4 °F 67.8 °F 30.27 in ESE 1.0 mph 2.0 mph 98 % 0.00 in
07:59 68.2 °F 67.6 °F 30.28 in ESE 1.0 mph 3.0 mph 98 % 0.00 in
08:04 68.2 °F 67.6 °F 30.27 in ESE 1.0 mph 3.0 mph 98 % 0.00 in
08:09 68.0 °F 67.5 °F 30.28 in SSE 1.0 mph 5.0 mph 98 % 0.00 in
08:14 68.2 °F 67.6 °F 30.28 in SSE 3.0 mph 6.0 mph 98 % 0.00 in
08:19 68.2 °F 67.6 °F 30.28 in East 2.0 mph 8.0 mph 98 % 0.00 in
08:24 68.4 °F 67.8 °F 30.29 in SE 4.0 mph 8.0 mph 98 % 0.00 in
08:29 68.4 °F 67.8 °F 30.29 in SSE 4.0 mph 8.0 mph 98 % 0.00 in
08:34 68.5 °F 68.0 °F 30.29 in SE 4.0 mph 7.0 mph 98 % 0.00 in
08:39 68.5 °F 68.0 °F 30.30 in ESE 6.0 mph 8.0 mph 98 % 0.00 in
08:44 68.7 °F 68.2 °F 30.30 in East 7.0 mph 11.0 mph 98 % 0.00 in
08:49 68.7 °F 68.2 °F 30.30 in ESE 4.0 mph 11.0 mph 98 % 0.00 in
08:54 68.9 °F 68.4 °F 30.30 in SE 9.0 mph 11.0 mph 98 % 0.00 in
08:59 68.9 °F 68.4 °F 30.30 in SSE 6.0 mph 9.0 mph 98 % 0.00 in
09:00 68.9 °F 68.4 °F 30.30 in South 1.0 mph 11.0 mph 98 % 0.00 in
09:05 69.1 °F 68.5 °F 30.31 in ESE 6.0 mph 11.0 mph 98 % 0.00 in
09:10 69.1 °F 68.5 °F 30.31 in ESE 4.0 mph 11.0 mph 98 % 0.00 in
09:15 69.1 °F 68.5 °F 30.31 in SE 3.0 mph 10.0 mph 98 % 0.00 in
09:20 69.1 °F 68.5 °F 30.31 in SE 6.0 mph 10.0 mph 98 % 0.00 in
09:25 69.3 °F 68.7 °F 30.32 in SSE 9.0 mph 10.0 mph 98 % 0.00 in
09:30 69.3 °F 68.7 °F 30.32 in SE 4.0 mph 10.0 mph 98 % 0.00 in
09:35 69.3 °F 68.7 °F 30.32 in SE 8.0 mph 10.0 mph 98 % 0.00 in
09:40 69.3 °F 68.7 °F 30.32 in SE 6.0 mph 11.0 mph 98 % 0.00 in
09:45 69.4 °F 68.9 °F 30.32 in ENE 6.0 mph 11.0 mph 98 % 0.00 in
09:50 69.4 °F 68.9 °F 30.33 in SE 3.0 mph 11.0 mph 98 % 0.00 in
09:55 69.4 °F 68.9 °F 30.33 in SE 2.0 mph 10.0 mph 98 % 0.00 in
10:00 69.6 °F 69.1 °F 30.33 in SE 7.0 mph 11.0 mph 98 % 0.00 in
10:05 69.6 °F 69.1 °F 30.33 in ESE 5.0 mph 11.0 mph 98 % 0.00 in
10:15 69.6 °F 68.7 °F 30.34 in SE 7.0 mph 10.0 mph 97 % 0.00 in
10:20 69.6 °F 68.7 °F 30.34 in South 3.0 mph 11.0 mph 97 % 0.00 in
10:25 69.8 °F 68.9 °F 30.34 in SE 3.0 mph 11.0 mph 97 % 0.00 in
10:30 70.0 °F 69.1 °F 30.34 in East 5.0 mph 11.0 mph 97 % 0.00 in
10:35 70.0 °F 69.1 °F 30.34 in SSE 4.0 mph 10.0 mph 97 % 0.00 in
10:40 70.2 °F 68.9 °F 30.34 in SSE 5.0 mph 8.0 mph 96 % 0.00 in
10:45 70.3 °F 69.1 °F 30.34 in ESE 6.0 mph 11.0 mph 96 % 0.00 in
10:50 70.5 °F 69.3 °F 30.33 in ESE 6.0 mph 11.0 mph 96 % 0.00 in
10:55 70.5 °F 69.1 °F 30.34 in SE 9.0 mph 11.0 mph 95 % 0.00 in
11:00 70.5 °F 69.1 °F 30.34 in ESE 6.0 mph 13.0 mph 95 % 0.00 in
11:05 70.9 °F 69.4 °F 30.33 in SE 8.0 mph 13.0 mph 95 % 0.00 in
11:10 71.1 °F 69.3 °F 30.33 in East 8.0 mph 13.0 mph 94 % 0.00 in
11:15 71.6 °F 69.8 °F 30.33 in East 4.0 mph 12.0 mph 94 % 0.00 in
11:21 72.1 °F 70.0 °F 30.33 in ESE 6.0 mph 12.0 mph 93 % 0.00 in
11:26 72.9 °F 69.8 °F 30.32 in East 5.0 mph 12.0 mph 90 % 0.00 in
11:31 73.0 °F 70.0 °F 30.32 in ESE 10.0 mph 12.0 mph 90 % 0.00 in
11:36 73.6 °F 69.8 °F 30.32 in SSE 4.0 mph 12.0 mph 88 % 0.00 in
11:41 73.8 °F 69.6 °F 30.32 in SE 6.0 mph 12.0 mph 87 % 0.00 in
11:46 74.1 °F 69.6 °F 30.32 in ESE 5.0 mph 12.0 mph 86 % 0.00 in
11:51 74.1 °F 68.9 °F 30.32 in ESE 3.0 mph 12.0 mph 84 % 0.00 in
11:56 74.1 °F 68.9 °F 30.31 in East 3.0 mph 10.0 mph 84 % 0.00 in
12:01 74.1 °F 69.3 °F 30.31 in SSE 5.0 mph 13.0 mph 85 % 0.00 in
12:06 74.7 °F 69.8 °F 30.31 in SSE 3.0 mph 13.0 mph 85 % 0.00 in
12:11 75.2 °F 68.9 °F 30.31 in SE 4.0 mph 13.0 mph 81 % 0.00 in
12:16 75.4 °F 68.7 °F 30.30 in ESE 8.0 mph 11.0 mph 80 % 0.00 in
12:21 75.0 °F 68.7 °F 30.30 in SE 5.0 mph 11.0 mph 81 % 0.00 in
12:26 75.0 °F 68.4 °F 30.30 in ESE 6.0 mph 11.0 mph 80 % 0.00 in
12:31 74.7 °F 68.4 °F 30.30 in SE 5.0 mph 11.0 mph 81 % 0.00 in
12:36 74.8 °F 68.5 °F 30.30 in SE 6.0 mph 11.0 mph 81 % 0.00 in
12:41 75.0 °F 68.7 °F 30.29 in SSE 7.0 mph 11.0 mph 81 % 0.00 in
12:46 75.7 °F 69.1 °F 30.30 in SSE 5.0 mph 11.0 mph 80 % 0.00 in
12:51 75.6 °F 68.5 °F 30.30 in ESE 6.0 mph 11.0 mph 79 % 0.00 in
12:56 75.6 °F 68.5 °F 30.29 in SE 5.0 mph 10.0 mph 79 % 0.00 in
13:01 75.6 °F 68.2 °F 30.29 in ESE 9.0 mph 10.0 mph 78 % 0.00 in
13:06 75.9 °F 69.3 °F 30.29 in SE 4.0 mph 11.0 mph 80 % 0.00 in
13:11 76.1 °F 68.4 °F 30.29 in SSE 3.0 mph 11.0 mph 77 % 0.00 in
13:16 76.3 °F 68.5 °F 30.28 in ESE 8.0 mph 11.0 mph 77 % 0.00 in
13:21 76.1 °F 68.4 °F 30.28 in ESE 5.0 mph 10.0 mph 77 % 0.00 in
13:26 76.1 °F 68.0 °F 30.28 in SE 2.0 mph 11.0 mph 76 % 0.00 in
13:31 76.5 °F 68.0 °F 30.28 in East 8.0 mph 12.0 mph 75 % 0.00 in
13:36 76.5 °F 68.0 °F 30.28 in East 7.0 mph 12.0 mph 75 % 0.00 in
13:41 76.3 °F 68.2 °F 30.28 in ESE 8.0 mph 12.0 mph 76 % 0.00 in
13:46 76.5 °F 67.6 °F 30.28 in ESE 6.0 mph 12.0 mph 74 % 0.00 in
13:51 76.6 °F 67.3 °F 30.28 in ENE 3.0 mph 12.0 mph 73 % 0.00 in
13:56 76.8 °F 67.5 °F 30.28 in SSW 3.0 mph 12.0 mph 73 % 0.00 in
14:01 76.6 °F 67.3 °F 30.27 in SE 7.0 mph 11.0 mph 73 % 0.00 in
14:06 76.6 °F 67.6 °F 30.27 in SE 4.0 mph 12.0 mph 74 % 0.00 in
14:11 77.2 °F 67.5 °F 30.27 in East 3.0 mph 12.0 mph 72 % 0.00 in
14:16 77.4 °F 67.6 °F 30.27 in SE 5.0 mph 12.0 mph 72 % 0.00 in
14:21 77.5 °F 67.5 °F 30.28 in SE 6.0 mph 12.0 mph 71 % 0.00 in
14:26 77.4 °F 67.6 °F 30.27 in East 5.0 mph 12.0 mph 72 % 0.00 in
14:31 77.4 °F 67.6 °F 30.27 in SSE 3.0 mph 11.0 mph 72 % 0.00 in
14:36 77.0 °F 66.9 °F 30.27 in ESE 13.0 mph 15.0 mph 71 % 0.00 in
14:41 76.8 °F 67.1 °F 30.28 in SE 6.0 mph 15.0 mph 72 % 0.00 in
14:46 77.2 °F 67.8 °F 30.28 in ESE 8.0 mph 15.0 mph 73 % 0.00 in
14:51 77.5 °F 67.5 °F 30.28 in ENE 3.0 mph 14.0 mph 71 % 0.00 in
14:56 77.7 °F 67.6 °F 30.28 in East 3.0 mph 11.0 mph 71 % 0.00 in
15:01 78.1 °F 67.5 °F 30.28 in SE 6.0 mph 11.0 mph 70 % 0.00 in
15:06 77.7 °F 66.7 °F 30.28 in East 9.0 mph 12.0 mph 69 % 0.00 in
15:11 77.5 °F 66.9 °F 30.28 in SSW 6.0 mph 13.0 mph 70 % 0.00 in
15:16 77.4 °F 66.7 °F 30.28 in SE 6.0 mph 13.0 mph 70 % 0.00 in
15:21 77.0 °F 66.9 °F 30.28 in ESE 2.0 mph 13.0 mph 71 % 0.00 in
15:26 77.2 °F 67.1 °F 30.28 in SE 8.0 mph 12.0 mph 71 % 0.00 in
15:31 77.2 °F 67.1 °F 30.28 in SSE 7.0 mph 11.0 mph 71 % 0.00 in
15:37 77.4 °F 66.7 °F 30.28 in SE 3.0 mph 11.0 mph 70 % 0.00 in
15:42 77.2 °F 66.6 °F 30.28 in SE 5.0 mph 11.0 mph 70 % 0.00 in
15:47 77.0 °F 66.9 °F 30.28 in East 4.0 mph 14.0 mph 71 % 0.00 in
15:52 77.2 °F 67.5 °F 30.28 in SSE 2.0 mph 14.0 mph 72 % 0.00 in
15:57 77.4 °F 66.7 °F 30.29 in ESE 4.0 mph 14.0 mph 70 % 0.00 in
16:02 77.5 °F 66.9 °F 30.29 in SSE 6.0 mph 11.0 mph 70 % 0.00 in
16:07 77.4 °F 67.3 °F 30.29 in ESE 9.0 mph 10.0 mph 71 % 0.00 in
16:12 77.2 °F 67.1 °F 30.29 in SSE 5.0 mph 10.0 mph 71 % 0.00 in
16:17 76.8 °F 67.1 °F 30.29 in SSE 7.0 mph 11.0 mph 72 % 0.00 in
16:22 76.3 °F 66.9 °F 30.29 in ESE 7.0 mph 11.0 mph 73 % 0.00 in
16:27 75.7 °F 67.3 °F 30.29 in SE 7.0 mph 11.0 mph 75 % 0.00 in
16:32 75.4 °F 67.3 °F 30.29 in ESE 7.0 mph 10.0 mph 76 % 0.00 in
16:37 75.4 °F 67.6 °F 30.29 in ESE 4.0 mph 11.0 mph 77 % 0.00 in
16:42 75.4 °F 67.6 °F 30.30 in SE 3.0 mph 11.0 mph 77 % 0.00 in
16:47 75.2 °F 67.5 °F 30.29 in SSE 4.0 mph 11.0 mph 77 % 0.00 in
16:52 74.8 °F 67.5 °F 30.30 in SE 8.0 mph 12.0 mph 78 % 0.00 in
16:57 74.5 °F 67.5 °F 30.29 in South 2.0 mph 12.0 mph 79 % 0.00 in
17:02 74.1 °F 67.6 °F 30.29 in ENE 2.0 mph 12.0 mph 80 % 0.00 in
17:07 73.9 °F 67.8 °F 30.30 in SE 5.0 mph 11.0 mph 81 % 0.00 in
17:12 73.8 °F 68.0 °F 30.30 in SSE 2.0 mph 8.0 mph 82 % 0.00 in
17:17 73.8 °F 68.0 °F 30.30 in East 5.0 mph 8.0 mph 82 % 0.00 in
17:22 73.6 °F 67.8 °F 30.30 in SE 2.0 mph 8.0 mph 82 % 0.00 in
17:27 73.2 °F 67.8 °F 30.30 in ESE 2.0 mph 10.0 mph 83 % 0.00 in
17:32 72.9 °F 67.8 °F 30.30 in East 2.0 mph 10.0 mph 84 % 0.00 in
17:37 72.7 °F 67.6 °F 30.30 in ESE 2.0 mph 10.0 mph 84 % 0.00 in
17:42 72.5 °F 67.8 °F 30.30 in SE 2.0 mph 8.0 mph 85 % 0.00 in
17:47 72.3 °F 67.8 °F 30.30 in ESE 4.0 mph 6.0 mph 86 % 0.00 in
17:52 72.1 °F 67.6 °F 30.30 in ESE 2.0 mph 8.0 mph 86 % 0.00 in
17:57 72.0 °F 67.8 °F 30.30 in ESE 6.0 mph 8.0 mph 87 % 0.00 in
18:02 71.8 °F 67.6 °F 30.30 in SSE 3.0 mph 10.0 mph 87 % 0.00 in
18:07 71.8 °F 67.6 °F 30.30 in East 6.0 mph 10.0 mph 87 % 0.00 in
18:12 71.6 °F 67.5 °F 30.30 in SE 4.0 mph 10.0 mph 87 % 0.00 in
18:17 71.6 °F 67.5 °F 30.30 in SE 8.0 mph 8.0 mph 87 % 0.00 in
18:22 71.4 °F 67.3 °F 30.30 in ESE 3.0 mph 10.0 mph 87 % 0.00 in
18:27 71.2 °F 67.5 °F 30.29 in East 6.0 mph 10.0 mph 88 % 0.00 in
18:32 71.2 °F 67.5 °F 30.29 in ESE 3.0 mph 10.0 mph 88 % 0.00 in
18:37 71.2 °F 67.5 °F 30.30 in East 1.0 mph 10.0 mph 88 % 0.00 in
18:42 71.1 °F 67.6 °F 30.30 in East 2.0 mph 10.0 mph 89 % 0.00 in
18:47 71.1 °F 67.6 °F 30.30 in East 2.0 mph 7.0 mph 89 % 0.00 in
18:52 70.9 °F 67.8 °F 30.30 in SE 2.0 mph 7.0 mph 90 % 0.00 in
18:57 70.9 °F 67.8 °F 30.30 in ESE 2.0 mph 6.0 mph 90 % 0.00 in
19:02 70.7 °F 67.6 °F 30.30 in SSE 1.0 mph 6.0 mph 90 % 0.00 in
19:07 70.5 °F 67.5 °F 30.31 in ESE 2.0 mph 5.0 mph 90 % 0.00 in
19:12 70.3 °F 67.6 °F 30.31 in SE 1.0 mph 5.0 mph 91 % 0.00 in
19:17 70.3 °F 67.6 °F 30.31 in ESE 1.0 mph 6.0 mph 91 % 0.00 in
19:22 70.2 °F 67.5 °F 30.31 in Calm   6.0 mph 91 % 0.00 in
19:27 70.2 °F 67.5 °F 30.31 in ESE 4.0 mph 6.0 mph 91 % 0.00 in
19:32 70.2 °F 67.5 °F 30.31 in East 3.0 mph 6.0 mph 91 % 0.00 in
19:37 70.2 °F 67.5 °F 30.32 in East 3.0 mph 6.0 mph 91 % 0.00 in
19:42 70.0 °F 67.3 °F 30.32 in ESE 2.0 mph 9.0 mph 91 % 0.00 in
19:47 70.0 °F 67.3 °F 30.32 in ESE 1.0 mph 9.0 mph 91 % 0.00 in
19:52 70.0 °F 67.5 °F 30.32 in ESE 2.0 mph 9.0 mph 92 % 0.00 in
19:57 70.0 °F 67.5 °F 30.32 in SE 1.0 mph 5.0 mph 92 % 0.00 in
20:02 69.8 °F 67.3 °F 30.32 in ESE 1.0 mph 5.0 mph 92 % 0.00 in
20:07 69.6 °F 67.3 °F 30.32 in ENE 1.0 mph 5.0 mph 92 % 0.00 in
20:13 69.6 °F 67.3 °F 30.32 in Calm   3.0 mph 92 % 0.00 in
20:18 69.6 °F 67.3 °F 30.32 in Calm   3.0 mph 92 % 0.00 in
20:23 69.4 °F 67.3 °F 30.32 in SE 1.0 mph 3.0 mph 93 % 0.00 in
20:28 69.4 °F 67.3 °F 30.33 in East 2.0 mph 4.0 mph 93 % 0.00 in
20:33 69.4 °F 67.3 °F 30.32 in SE 2.0 mph 4.0 mph 93 % 0.00 in
20:38 69.6 °F 67.5 °F 30.33 in ESE 2.0 mph 5.0 mph 93 % 0.00 in
20:43 69.6 °F 67.5 °F 30.33 in ESE 3.0 mph 5.0 mph 93 % 0.00 in
20:48 69.6 °F 67.5 °F 30.32 in ESE 2.0 mph 5.0 mph 93 % 0.00 in
20:53 69.8 °F 67.6 °F 30.33 in SE 2.0 mph 5.0 mph 93 % 0.00 in
20:58 69.8 °F 67.6 °F 30.32 in East 2.0 mph 5.0 mph 93 % 0.00 in
21:03 69.8 °F 67.6 °F 30.33 in SE 2.0 mph 4.0 mph 93 % 0.00 in
21:08 69.8 °F 67.6 °F 30.33 in East 3.0 mph 6.0 mph 93 % 0.00 in
21:13 70.0 °F 68.2 °F 30.33 in SE 2.0 mph 6.0 mph 94 % 0.00 in
21:18 70.0 °F 68.2 °F 30.33 in East 4.0 mph 7.0 mph 94 % 0.00 in
21:23 70.0 °F 68.2 °F 30.33 in East 4.0 mph 8.0 mph 94 % 0.00 in
21:28 70.0 °F 68.2 °F 30.33 in ESE 3.0 mph 8.0 mph 94 % 0.00 in
21:33 70.0 °F 68.2 °F 30.32 in Calm   9.0 mph 94 % 0.00 in
21:38 70.0 °F 68.2 °F 30.32 in ESE 1.0 mph 9.0 mph 94 % 0.00 in
21:43 69.8 °F 68.0 °F 30.33 in East 2.0 mph 9.0 mph 94 % 0.00 in
21:48 69.8 °F 68.0 °F 30.33 in ESE 1.0 mph 5.0 mph 94 % 0.00 in
21:53 69.8 °F 68.0 °F 30.32 in South 1.0 mph 4.0 mph 94 % 0.00 in
21:58 69.6 °F 67.8 °F 30.32 in ESE 2.0 mph 3.0 mph 94 % 0.00 in
22:04 69.6 °F 67.8 °F 30.32 in SE 1.0 mph 3.0 mph 94 % 0.00 in
22:09 69.6 °F 67.8 °F 30.33 in ESE 2.0 mph 3.0 mph 94 % 0.00 in
22:14 69.6 °F 68.2 °F 30.33 in SE 4.0 mph 5.0 mph 95 % 0.00 in
22:19 69.6 °F 68.2 °F 30.33 in ESE 2.0 mph 5.0 mph 95 % 0.02 in
22:24 69.4 °F 68.0 °F 30.33 in SE 1.0 mph 5.0 mph 95 % 0.02 in
22:29 69.4 °F 68.0 °F 30.33 in SE 2.0 mph 5.0 mph 95 % 0.02 in
22:35 69.3 °F 68.0 °F 30.33 in SE 2.0 mph 5.0 mph 96 % 0.02 in
22:40 69.3 °F 68.0 °F 30.33 in SE 3.0 mph 5.0 mph 96 % 0.02 in
22:45 69.3 °F 68.0 °F 30.33 in SE 3.0 mph 6.0 mph 96 % 0.02 in
22:50 69.1 °F 67.8 °F 30.33 in SSW 6.0 mph 6.0 mph 96 % 0.02 in
22:55 69.1 °F 67.8 °F 30.33 in SSE 5.0 mph 7.0 mph 96 % 0.02 in
23:00 68.9 °F 67.6 °F 30.33 in SE 4.0 mph 9.0 mph 96 % 0.02 in
23:05 68.5 °F 67.3 °F 30.32 in SE 2.0 mph 9.0 mph 96 % 0.02 in
23:10 68.4 °F 67.1 °F 30.32 in ESE 2.0 mph 7.0 mph 96 % 0.01 in
23:15 68.4 °F 67.1 °F 30.33 in SE 3.0 mph 7.0 mph 96 % 0.00 in
23:20 68.4 °F 67.1 °F 30.33 in ESE 2.0 mph 7.0 mph 96 % 0.00 in
23:25 68.4 °F 67.1 °F 30.32 in East 3.0 mph 7.0 mph 96 % 0.00 in
23:30 68.4 °F 67.1 °F 30.32 in SSE 3.0 mph 5.0 mph 96 % 0.00 in
23:35 68.5 °F 67.6 °F 30.32 in SE 3.0 mph 8.0 mph 97 % 0.00 in
23:40 68.5 °F 67.6 °F 30.32 in SE 3.0 mph 8.0 mph 97 % 0.00 in
23:45 68.5 °F 67.6 °F 30.32 in SE 2.0 mph 8.0 mph 97 % 0.00 in
23:50 68.7 °F 67.8 °F 30.32 in SSE 6.0 mph 8.0 mph 97 % 0.00 in
23:55 68.7 °F 67.8 °F 30.32 in SE 2.0 mph 8.0 mph 97 % 0.00 in
Spring, Texas: Villages of Bridgestone
Compliments of Weather Underground - 2.75 mb

Script developed by  Jim McMurry - jmcmurry@mwt.net Adapted for the template by  Wim van der Kuil - Leuven-Template.eu

You find our weather info also at:

UK Metoffice

WeatherCloud

Weather Underground

Mid-South Weather Network

AWEKAS

Citizen Weather Observer Program (CWOP)

HAMweather, WeatherForYou, PWS Weather

Equipment we use:

Weather-station
Davis Vantage Vue

Weather-program
Meteohub

Weather-server
Debian 7.9 x86 (Guest)

Provider
DreamHost

Davis Vantage Vue

Meteohub

Debian 7.9 x86 (Guest)

DreamHost